createdAt,value
2022-08-12T00:01:01.273Z,52.00
2022-08-12T00:03:46.687Z,52.16
2022-08-12T00:06:32.864Z,52.19
2022-08-12T00:09:20.253Z,52.27
2022-08-12T00:12:08.831Z,52.18
2022-08-12T00:14:56.046Z,52.70
2022-08-12T00:17:42.343Z,52.53
2022-08-12T00:20:29.723Z,52.76
2022-08-12T00:23:15.952Z,52.62
2022-08-12T00:26:23.239Z,52.52
2022-08-12T00:29:10.653Z,52.58
2022-08-12T00:31:57.676Z,52.59
2022-08-12T00:34:43.291Z,52.75
2022-08-12T00:37:28.706Z,52.77
2022-08-12T00:40:14.727Z,52.66
2022-08-12T00:42:42.268Z,52.85
2022-08-12T00:45:11.293Z,52.95
2022-08-12T00:47:41.021Z,52.92
2022-08-12T00:50:17.774Z,52.94
2022-08-12T00:52:46.347Z,52.82
2022-08-12T00:55:14.416Z,52.94
2022-08-12T00:57:47.899Z,53.18
2022-08-12T01:00:19.378Z,53.04
2022-08-12T01:02:52.090Z,53.21
2022-08-12T01:05:40.300Z,52.82
2022-08-12T01:08:25.918Z,52.91
2022-08-12T01:11:14.021Z,53.26
2022-08-12T01:13:47.307Z,53.41
2022-08-12T01:16:18.046Z,53.47
2022-08-12T01:18:47.600Z,53.63
2022-08-12T01:21:36.188Z,53.57
2022-08-12T01:24:28.874Z,53.57
2022-08-12T01:27:03.452Z,53.80
2022-08-12T01:29:42.714Z,54.04
2022-08-12T01:32:14.509Z,54.15
2022-08-12T01:34:47.733Z,54.52
2022-08-12T01:37:20.354Z,54.68
2022-08-12T01:40:33.882Z,55.04
2022-08-12T01:42:45.913Z,55.10
2022-08-12T01:45:14.870Z,55.34
2022-08-12T01:48:05.172Z,55.46
2022-08-12T01:50:43.154Z,55.55
2022-08-12T01:53:13.300Z,55.55
2022-08-12T01:55:43.520Z,55.87
2022-08-12T01:58:24.203Z,56.01
2022-08-12T02:00:59.398Z,56.13
2022-08-12T02:04:03.546Z,56.61
2022-08-12T02:06:54.718Z,56.42
2022-08-12T02:10:05.252Z,56.55
2022-08-12T02:12:47.800Z,56.72
2022-08-12T02:15:28.628Z,56.98
2022-08-12T02:18:05.561Z,57.02
2022-08-12T02:20:52.403Z,57.51
2022-08-12T02:23:25.543Z,58.08
2022-08-12T02:25:57.042Z,58.23
2022-08-12T02:28:25.379Z,58.53
2022-08-12T02:30:55.602Z,58.44
2022-08-12T02:33:24.189Z,58.63
2022-08-12T02:35:52.522Z,58.85
2022-08-12T02:38:22.807Z,59.36
2022-08-12T02:40:54.855Z,59.55
2022-08-12T02:43:29.588Z,59.78
2022-08-12T02:46:04.551Z,60.15
2022-08-12T02:48:36.081Z,60.10
2022-08-12T02:51:07.057Z,60.43
2022-08-12T02:53:37.240Z,60.39
2022-08-12T02:56:07.070Z,60.53
2022-08-12T02:58:41.381Z,60.93
2022-08-12T03:01:17.434Z,60.95
2022-08-12T03:03:49.590Z,61.21
2022-08-12T03:06:22.815Z,61.72
2022-08-12T03:08:57.402Z,61.84
2022-08-12T03:11:31.228Z,62.20
2022-08-12T03:14:03.685Z,62.45
2022-08-12T03:16:34.077Z,62.32
2022-08-12T03:19:07.209Z,62.58
2022-08-12T03:21:52.924Z,62.84
2022-08-12T03:24:27.427Z,62.83
2022-08-12T03:27:00.403Z,63.08
2022-08-12T03:29:32.819Z,63.37
2022-08-12T03:32:35.799Z,63.54
2022-08-12T03:35:07.487Z,63.30
2022-08-12T03:37:37.685Z,63.63
2022-08-12T03:40:08.878Z,63.71
2022-08-12T03:42:41.543Z,64.05
2022-08-12T03:45:42.935Z,64.25
2022-08-12T03:48:40.093Z,64.14
2022-08-12T03:51:26.590Z,64.40
2022-08-12T03:54:12.717Z,64.70
2022-08-12T03:56:58.589Z,64.89
2022-08-12T03:59:44.729Z,64.78
2022-08-12T04:02:15.476Z,64.88
2022-08-12T04:04:46.738Z,65.20
2022-08-12T04:07:18.393Z,65.15
2022-08-12T04:09:47.620Z,65.31
2022-08-12T04:12:33.722Z,65.66
2022-08-12T04:15:02.878Z,65.47
2022-08-12T04:17:32.366Z,65.52
2022-08-12T04:20:01.626Z,65.72
2022-08-12T04:22:30.940Z,65.87
2022-08-12T04:25:01.473Z,66.07
2022-08-12T04:27:31.872Z,66.26
2022-08-12T04:30:30.689Z,66.29
2022-08-12T04:32:50.801Z,66.38
2022-08-12T04:35:20.134Z,66.56
2022-08-12T04:37:58.451Z,66.58
2022-08-12T04:40:32.589Z,66.80
2022-08-12T04:43:03.531Z,66.82
2022-08-12T04:45:33.030Z,66.84
2022-08-12T04:48:02.639Z,67.03
2022-08-12T04:50:37.058Z,67.26
2022-08-12T04:53:08.007Z,67.61
2022-08-12T04:55:38.528Z,67.74
2022-08-12T04:58:06.734Z,67.78
2022-08-12T05:00:35.402Z,68.02
2022-08-12T05:03:06.370Z,68.20
2022-08-12T05:05:37.056Z,68.45
2022-08-12T05:08:07.948Z,68.57
2022-08-12T05:10:36.276Z,68.78
2022-08-12T05:13:11.154Z,68.94
2022-08-12T05:16:04.715Z,68.89
2022-08-12T05:18:29.657Z,69.27
2022-08-12T05:20:59.942Z,69.57
2022-08-12T05:23:28.730Z,69.80
2022-08-12T05:25:57.548Z,69.75
2022-08-12T05:28:27.171Z,70.16
2022-08-12T05:30:56.545Z,69.99
2022-08-12T05:33:31.607Z,69.83
2022-08-12T05:36:00.999Z,69.26
2022-08-12T05:38:46.672Z,68.87
2022-08-12T05:41:20.479Z,67.95
2022-08-12T05:43:51.205Z,66.59
2022-08-12T05:46:19.799Z,65.54
2022-08-12T05:48:49.493Z,64.79
2022-08-12T05:51:19.286Z,64.64
2022-08-12T05:53:48.379Z,64.74
2022-08-12T05:56:24.695Z,64.69
2022-08-12T05:58:54.663Z,64.61
2022-08-12T06:02:12.762Z,63.93
2022-08-12T06:04:14.358Z,63.29
2022-08-12T06:06:43.796Z,63.16
2022-08-12T06:09:12.497Z,62.54
2022-08-12T06:12:04.675Z,61.91
2022-08-12T06:14:35.246Z,61.35
2022-08-12T06:17:03.950Z,60.50
2022-08-12T06:20:28.090Z,60.22
2022-08-12T06:22:21.834Z,59.52
2022-08-12T06:24:51.199Z,59.27
2022-08-12T06:27:19.393Z,59.05
2022-08-12T06:30:08.104Z,58.27
2022-08-12T06:32:35.440Z,57.71
2022-08-12T06:35:23.859Z,57.69
2022-08-12T06:37:57.224Z,57.07
2022-08-12T06:40:44.319Z,56.73
2022-08-12T06:43:13.647Z,56.26
2022-08-12T06:45:46.748Z,55.74
2022-08-12T06:48:15.447Z,54.92
2022-08-12T06:50:44.569Z,54.90
2022-08-12T06:53:14.079Z,54.54
2022-08-12T06:55:58.035Z,53.96
2022-08-12T06:58:26.996Z,53.67
2022-08-12T07:00:56.080Z,53.21
2022-08-12T07:03:27.891Z,52.92
2022-08-12T07:05:57.446Z,52.54
2022-08-12T07:08:29.345Z,52.41
2022-08-12T07:10:59.420Z,52.10
2022-08-12T07:13:29.138Z,51.76
2022-08-12T07:15:58.802Z,51.29
2022-08-12T07:18:31.305Z,51.27
2022-08-12T07:21:01.422Z,51.04
2022-08-12T07:23:33.572Z,51.13
2022-08-12T07:26:03.018Z,51.10
2022-08-12T07:28:34.965Z,50.91
2022-08-12T07:31:05.041Z,50.44
2022-08-12T07:33:33.104Z,50.38
2022-08-12T07:36:03.449Z,49.98
2022-08-12T07:38:34.736Z,49.90
2022-08-12T07:41:07.390Z,49.48
2022-08-12T07:43:39.368Z,49.39
2022-08-12T07:46:09.492Z,49.16
2022-08-12T07:48:40.840Z,48.79
2022-08-12T07:51:09.609Z,48.41
2022-08-12T07:53:59.854Z,47.90
2022-08-12T07:56:29.719Z,47.41
2022-08-12T07:58:59.247Z,46.79
2022-08-12T08:01:28.401Z,46.50
2022-08-12T08:04:18.793Z,45.92
2022-08-12T08:06:47.675Z,45.86
2022-08-12T08:09:19.367Z,45.65
2022-08-12T08:12:04.883Z,45.10
2022-08-12T08:14:33.002Z,43.68
2022-08-12T08:17:03.738Z,43.15
2022-08-12T08:19:33.721Z,42.28
2022-08-12T08:22:25.760Z,41.39
2022-08-12T08:25:35.013Z,41.27
2022-08-12T08:28:01.329Z,40.99
2022-08-12T08:30:30.629Z,41.30
2022-08-12T08:32:58.683Z,40.80
2022-08-12T08:35:32.807Z,39.07
2022-08-12T08:38:33.068Z,38.38
2022-08-12T08:42:17.945Z,37.99
2022-08-12T08:44:12.034Z,38.05
2022-08-12T08:46:40.774Z,37.38
2022-08-12T08:49:08.888Z,36.61
2022-08-12T08:51:37.142Z,37.17
2022-08-12T08:54:06.949Z,36.77
2022-08-12T08:56:43.973Z,36.95
2022-08-12T08:59:12.790Z,35.85
2022-08-12T09:01:41.288Z,35.88
2022-08-12T09:05:12.430Z,35.46
2022-08-12T09:10:02.762Z,33.63
2022-08-12T09:12:55.168Z,33.70
2022-08-12T09:15:35.577Z,33.35
2022-08-12T09:18:09.039Z,32.97
2022-08-12T09:20:38.746Z,32.83
2022-08-12T09:23:58.736Z,32.51
2022-08-12T09:28:52.882Z,31.44
2022-08-12T09:32:03.615Z,31.29
2022-08-12T09:34:31.065Z,31.75
2022-08-12T09:37:02.325Z,30.66
2022-08-12T09:40:05.801Z,30.11
2022-08-12T09:42:52.979Z,30.20
2022-08-12T09:46:06.327Z,29.74
2022-08-12T09:48:20.248Z,29.45
2022-08-12T09:50:51.653Z,30.02
2022-08-12T09:54:32.991Z,30.33
2022-08-12T09:56:59.460Z,30.49
2022-08-12T09:59:02.934Z,29.18
2022-08-12T10:01:34.630Z,28.97
2022-08-12T10:04:20.323Z,27.99
2022-08-12T10:06:55.552Z,28.21
2022-08-12T10:09:28.949Z,27.52
2022-08-12T10:12:33.025Z,27.05
2022-08-12T10:15:01.793Z,27.23
2022-08-12T10:17:31.559Z,26.85
2022-08-12T10:20:01.436Z,26.90
2022-08-12T10:22:36.837Z,27.23
2022-08-12T10:26:36.196Z,27.63
2022-08-12T10:28:32.602Z,27.10
2022-08-12T10:31:01.595Z,26.52
2022-08-12T10:33:55.040Z,25.87
2022-08-12T10:36:40.551Z,26.41
2022-08-12T10:39:44.267Z,25.67
2022-08-12T10:42:29.577Z,24.84
2022-08-12T10:45:01.242Z,24.82
2022-08-12T10:48:19.678Z,24.56
2022-08-12T10:50:35.692Z,24.72
2022-08-12T10:53:11.836Z,25.36
2022-08-12T10:55:55.533Z,24.93
2022-08-12T10:58:28.295Z,23.63
2022-08-12T11:01:50.291Z,23.54
2022-08-12T11:04:18.928Z,23.46
2022-08-12T11:07:05.356Z,24.08
2022-08-12T11:09:55.854Z,24.58
2022-08-12T11:12:55.549Z,24.21
2022-08-12T11:15:18.454Z,23.91
2022-08-12T11:17:54.116Z,23.86
2022-08-12T11:20:24.561Z,23.53
2022-08-12T11:23:03.877Z,22.87
2022-08-12T11:25:55.750Z,22.98
2022-08-12T11:28:33.823Z,23.10
2022-08-12T11:31:04.326Z,22.77
2022-08-12T11:34:04.240Z,22.26
2022-08-12T11:36:21.775Z,22.43
2022-08-12T11:38:52.877Z,22.45
2022-08-12T11:41:31.822Z,21.45
2022-08-12T11:44:29.185Z,21.60
2022-08-12T11:46:52.676Z,21.81
2022-08-12T11:49:30.496Z,21.83
2022-08-12T11:52:02.435Z,21.79
2022-08-12T11:54:33.547Z,21.57
2022-08-12T11:58:07.000Z,21.47
2022-08-12T12:03:44.257Z,21.73
2022-08-12T12:06:16.851Z,21.39
2022-08-12T12:08:51.082Z,21.17
2022-08-12T12:11:21.457Z,21.24
2022-08-12T12:14:06.246Z,21.17
2022-08-12T12:16:39.702Z,21.20
2022-08-12T12:19:11.578Z,21.23
2022-08-12T12:21:48.741Z,20.57
2022-08-12T12:24:21.699Z,20.37
2022-08-12T12:26:59.601Z,20.13
2022-08-12T12:30:18.102Z,19.95
2022-08-12T12:32:18.411Z,19.91
2022-08-12T12:35:18.133Z,20.63
2022-08-12T12:38:03.527Z,20.24
2022-08-12T12:40:35.232Z,19.36
2022-08-12T12:43:09.044Z,19.59
2022-08-12T12:45:39.426Z,19.40
2022-08-12T12:48:14.078Z,18.94
2022-08-12T12:50:45.872Z,18.87
2022-08-12T12:54:06.467Z,19.36
2022-08-12T12:56:16.602Z,19.30
2022-08-12T12:58:45.090Z,19.46
2022-08-12T13:01:26.629Z,19.53
2022-08-12T13:04:02.519Z,19.45
2022-08-12T13:06:34.230Z,19.37
2022-08-12T13:09:04.045Z,19.45
2022-08-12T13:11:41.250Z,18.83
2022-08-12T13:14:27.946Z,18.32
2022-08-12T13:16:58.508Z,18.49
2022-08-12T13:19:37.735Z,17.56
2022-08-12T13:22:21.446Z,18.33
2022-08-12T13:24:54.640Z,18.81
2022-08-12T13:27:35.663Z,18.39
2022-08-12T13:30:11.307Z,18.88
2022-08-12T13:32:42.478Z,18.97
2022-08-12T13:35:20.363Z,18.25
2022-08-12T13:38:02.800Z,18.72
2022-08-12T13:40:33.351Z,18.79
2022-08-12T13:43:05.539Z,18.72
2022-08-12T13:45:35.340Z,18.97
2022-08-12T13:48:06.327Z,19.37
2022-08-12T13:50:37.758Z,19.37
2022-08-12T13:53:24.172Z,19.49
2022-08-12T13:56:01.704Z,19.01
2022-08-12T13:58:34.605Z,18.33
2022-08-12T14:01:06.490Z,18.92
2022-08-12T14:03:50.112Z,19.24
2022-08-12T14:06:21.359Z,19.08
2022-08-12T14:08:55.774Z,19.67
2022-08-12T14:11:25.093Z,19.00
2022-08-12T14:14:04.632Z,19.57
2022-08-12T14:16:48.437Z,18.93
2022-08-12T14:19:24.860Z,18.48
2022-08-12T14:22:01.553Z,18.73
2022-08-12T14:24:40.401Z,18.74
2022-08-12T14:27:11.299Z,18.80
2022-08-12T14:30:04.334Z,19.11
2022-08-12T14:32:40.003Z,19.41
2022-08-12T14:35:09.900Z,19.35
2022-08-12T14:37:57.062Z,19.04
2022-08-12T14:40:29.775Z,19.06
2022-08-12T14:42:59.354Z,19.70
2022-08-12T14:45:45.543Z,19.55
2022-08-12T14:48:18.784Z,19.32
2022-08-12T14:51:02.864Z,19.88
2022-08-12T14:55:31.984Z,19.48
2022-08-12T14:59:56.302Z,19.95
2022-08-12T15:02:23.087Z,20.07
2022-08-12T15:04:59.024Z,19.82
2022-08-12T15:07:33.491Z,20.39
2022-08-12T15:10:31.634Z,20.51
2022-08-12T15:13:07.638Z,20.23
2022-08-12T15:15:44.146Z,20.39
2022-08-12T15:18:20.911Z,20.86
2022-08-12T15:20:51.066Z,21.27
2022-08-12T15:23:21.346Z,21.08
2022-08-12T15:26:02.522Z,21.27
2022-08-12T15:28:34.722Z,21.17
2022-08-12T15:31:21.274Z,21.30
2022-08-12T15:33:52.640Z,21.56
2022-08-12T15:36:50.257Z,21.97
2022-08-12T15:39:17.014Z,22.19
2022-08-12T15:41:50.227Z,21.99
2022-08-12T15:44:38.789Z,21.86
2022-08-12T15:47:09.762Z,22.31
2022-08-12T15:49:54.269Z,22.73
2022-08-12T15:52:28.559Z,22.63
2022-08-12T15:54:58.531Z,23.14
2022-08-12T15:57:27.777Z,23.14
2022-08-12T16:00:07.057Z,23.55
2022-08-12T16:02:50.608Z,23.75
2022-08-12T16:06:12.663Z,24.45
2022-08-12T16:08:18.461Z,24.24
2022-08-12T16:10:49.412Z,24.64
2022-08-12T16:13:32.350Z,24.49
2022-08-12T16:16:22.704Z,24.81
2022-08-12T16:18:59.612Z,24.91
2022-08-12T16:21:52.776Z,25.51
2022-08-12T16:24:18.845Z,25.25
2022-08-12T16:26:51.333Z,25.49
2022-08-12T16:29:26.545Z,25.54
2022-08-12T16:32:08.946Z,25.83
2022-08-12T16:34:42.083Z,25.59
2022-08-12T16:37:32.416Z,25.57
2022-08-12T16:40:06.013Z,26.14
2022-08-12T16:42:39.183Z,25.99
2022-08-12T16:45:13.950Z,25.92
2022-08-12T16:47:58.150Z,26.20
2022-08-12T16:50:31.370Z,26.42
2022-08-12T16:53:02.515Z,26.65
2022-08-12T16:55:42.275Z,26.94
2022-08-12T16:58:18.440Z,26.98
2022-08-12T17:00:57.027Z,26.91
2022-08-12T17:03:29.154Z,27.35
2022-08-12T17:05:58.449Z,27.37
2022-08-12T17:08:29.233Z,27.54
2022-08-12T17:10:57.487Z,27.34
2022-08-12T17:13:26.197Z,27.73
2022-08-12T17:16:05.510Z,27.89
2022-08-12T17:18:43.743Z,27.99
2022-08-12T17:21:40.821Z,28.16
2022-08-12T17:24:21.360Z,28.31
2022-08-12T17:26:54.151Z,28.36
2022-08-12T17:29:23.963Z,28.64
2022-08-12T17:32:02.938Z,28.61
2022-08-12T17:34:51.347Z,28.95
2022-08-12T17:37:19.358Z,29.12
2022-08-12T17:40:13.611Z,28.83
2022-08-12T17:42:38.472Z,29.03
2022-08-12T17:45:18.607Z,29.41
2022-08-12T17:48:05.395Z,29.40
2022-08-12T17:50:38.128Z,29.16
2022-08-12T17:53:10.146Z,29.55
2022-08-12T17:55:47.584Z,29.68
2022-08-12T17:58:35.617Z,29.87
2022-08-12T18:01:11.197Z,29.70
2022-08-12T18:04:04.397Z,29.81
2022-08-12T18:06:32.086Z,30.31
2022-08-12T18:09:08.881Z,30.91
2022-08-12T18:12:04.110Z,31.19
2022-08-12T18:14:37.143Z,31.19
2022-08-12T18:17:11.402Z,31.44
2022-08-12T18:20:06.839Z,32.15
2022-08-12T18:22:32.775Z,32.11
2022-08-12T18:25:03.734Z,32.42
2022-08-12T18:27:44.181Z,32.97
2022-08-12T18:30:21.067Z,32.53
2022-08-12T18:33:03.535Z,32.76
2022-08-12T18:35:47.719Z,32.82
2022-08-12T18:38:25.392Z,32.83
2022-08-12T18:41:20.738Z,33.21
2022-08-12T18:43:58.691Z,33.64
2022-08-12T18:46:35.754Z,34.03
2022-08-12T18:49:18.191Z,34.41
2022-08-12T18:51:55.157Z,34.58
2022-08-12T18:54:35.025Z,35.05
2022-08-12T18:57:15.418Z,35.55
2022-08-12T19:00:02.575Z,35.20
2022-08-12T19:02:39.893Z,35.48
2022-08-12T19:05:11.252Z,35.54
2022-08-12T19:08:00.211Z,35.75
2022-08-12T19:10:33.131Z,35.98
2022-08-12T19:13:23.129Z,36.49
2022-08-12T19:15:54.531Z,36.58
2022-08-12T19:18:29.582Z,36.79
2022-08-12T19:20:58.981Z,37.13
2022-08-12T19:23:34.938Z,37.75
2022-08-12T19:26:05.347Z,38.07
2022-08-12T19:28:38.834Z,38.21
2022-08-12T19:31:44.910Z,38.55
2022-08-12T19:34:50.475Z,38.51
2022-08-12T19:37:20.216Z,38.95
2022-08-12T19:40:09.396Z,38.93
2022-08-12T19:42:44.395Z,39.35
2022-08-12T19:45:15.657Z,39.68
2022-08-12T19:47:46.783Z,40.19
2022-08-12T19:50:20.114Z,40.51
2022-08-12T19:52:51.157Z,40.72
2022-08-12T19:55:21.844Z,41.06
2022-08-12T19:58:02.507Z,41.23
2022-08-12T20:00:35.335Z,41.41
2022-08-12T20:03:05.415Z,41.66
2022-08-12T20:06:04.941Z,41.86
2022-08-12T20:08:33.127Z,41.83
2022-08-12T20:12:12.608Z,42.52
2022-08-12T20:14:01.332Z,42.76
2022-08-12T20:16:57.362Z,43.04
2022-08-12T20:19:52.517Z,43.23
2022-08-12T20:22:33.313Z,43.55
2022-08-12T20:25:09.034Z,43.63
2022-08-12T20:28:05.315Z,43.66
2022-08-12T20:30:37.364Z,43.71
2022-08-12T20:33:18.681Z,43.44
2022-08-12T20:36:13.464Z,43.38
2022-08-12T20:38:38.345Z,43.84
2022-08-12T20:41:16.558Z,43.89
2022-08-12T20:43:47.297Z,43.89
2022-08-12T20:46:16.997Z,43.99
2022-08-12T20:48:54.287Z,44.01
2022-08-12T20:51:23.354Z,44.13
2022-08-12T20:53:58.324Z,44.37
2022-08-12T20:56:33.040Z,44.83
2022-08-12T20:59:04.495Z,44.97
2022-08-12T21:01:46.749Z,44.87
2022-08-12T21:04:35.917Z,45.16
2022-08-12T21:07:09.344Z,45.25
2022-08-12T21:09:44.319Z,45.03
2022-08-12T21:12:27.879Z,45.22
2022-08-12T21:15:16.990Z,45.79
2022-08-12T21:18:08.932Z,46.07
2022-08-12T21:20:44.530Z,46.06
2022-08-12T21:23:13.837Z,46.17
2022-08-12T21:25:45.715Z,45.83
2022-08-12T21:28:14.721Z,46.22
2022-08-12T21:31:11.007Z,46.30
2022-08-12T21:33:58.770Z,46.21
2022-08-12T21:36:22.811Z,46.70
2022-08-12T21:39:01.444Z,46.72
2022-08-12T21:41:50.125Z,47.19
2022-08-12T21:44:32.470Z,47.28
2022-08-12T21:47:18.264Z,47.52
2022-08-12T21:50:04.117Z,48.13
2022-08-12T21:52:36.808Z,48.06
2022-08-12T21:55:08.564Z,48.32
2022-08-12T21:57:50.941Z,48.29
2022-08-12T22:00:31.494Z,48.36
2022-08-12T22:03:17.391Z,48.70
2022-08-12T22:06:30.828Z,48.71
2022-08-12T22:09:15.944Z,48.86
2022-08-12T22:11:49.267Z,48.99
2022-08-12T22:14:25.409Z,49.04
2022-08-12T22:16:55.637Z,48.93
2022-08-12T22:19:23.799Z,49.31
2022-08-12T22:21:55.728Z,49.09
2022-08-12T22:24:26.936Z,49.14
2022-08-12T22:26:58.011Z,49.75
2022-08-12T22:29:43.503Z,49.67
2022-08-12T22:32:12.034Z,49.73
2022-08-12T22:34:40.515Z,49.92
2022-08-12T22:37:20.013Z,49.70
2022-08-12T22:39:49.121Z,50.03
2022-08-12T22:42:35.719Z,49.86
2022-08-12T22:45:23.532Z,50.13
2022-08-12T22:47:54.790Z,50.21
2022-08-12T22:50:28.089Z,50.03
2022-08-12T22:53:15.415Z,50.47
2022-08-12T22:55:59.269Z,50.41
2022-08-12T22:58:33.528Z,50.75
2022-08-12T23:01:03.459Z,50.61
2022-08-12T23:03:47.925Z,50.94
2022-08-12T23:06:20.035Z,51.19
2022-08-12T23:08:49.918Z,51.22
2022-08-12T23:11:23.573Z,51.31
2022-08-12T23:13:56.111Z,51.62
2022-08-12T23:16:31.580Z,51.94
2022-08-12T23:19:09.527Z,52.06
2022-08-12T23:22:03.792Z,52.27
2022-08-12T23:24:30.381Z,52.29
2022-08-12T23:27:18.241Z,52.71
2022-08-12T23:30:17.923Z,52.54
2022-08-12T23:32:37.157Z,52.84
2022-08-12T23:35:06.876Z,53.10
2022-08-12T23:37:47.442Z,53.43
2022-08-12T23:40:25.761Z,53.46
2022-08-12T23:42:55.235Z,53.65
2022-08-12T23:45:30.904Z,53.61
2022-08-12T23:48:00.247Z,53.75
2022-08-12T23:50:33.491Z,54.00
2022-08-12T23:53:05.713Z,53.99
2022-08-12T23:55:40.447Z,54.18
2022-08-12T23:58:21.253Z,54.26
